createdAt,value
2019-06-10T00:02:42.524Z,46.91
2019-06-10T00:07:46.562Z,47.59
2019-06-10T00:12:51.763Z,47.72
2019-06-10T00:18:18.979Z,49.15
2019-06-10T00:23:04.047Z,51.34
2019-06-10T00:28:09.534Z,53.25
2019-06-10T00:33:31.208Z,55.86
2019-06-10T00:38:35.534Z,58.21
2019-06-10T00:43:41.163Z,59.83
2019-06-10T00:48:45.250Z,59.14
2019-06-10T00:53:51.466Z,63.30
2019-06-10T00:58:54.971Z,64.58
2019-06-10T01:04:01.380Z,62.64
2019-06-10T01:09:06.759Z,62.81
2019-06-10T01:14:12.535Z,64.37
2019-06-10T01:19:16.950Z,63.02
2019-06-10T01:24:22.405Z,64.22
2019-06-10T01:29:26.697Z,65.38
2019-06-10T01:34:31.195Z,65.02
2019-06-10T01:39:35.755Z,66.81
2019-06-10T01:44:41.236Z,68.78
2019-06-10T01:49:47.482Z,69.11
2019-06-10T01:54:51.742Z,72.72
2019-06-10T01:59:55.805Z,72.32
2019-06-10T02:05:01.562Z,68.88
2019-06-10T02:10:06.723Z,62.67
2019-06-10T02:15:12.576Z,62.31
2019-06-10T02:20:18.125Z,60.96
2019-06-10T02:25:22.987Z,58.99
2019-06-10T02:30:41.764Z,59.88
2019-06-10T02:35:43.290Z,59.33
2019-06-10T02:40:43.303Z,57.55
2019-06-10T02:45:46.099Z,57.29
2019-06-10T02:51:05.632Z,57.64
2019-06-10T02:56:12.454Z,57.55
2019-06-10T03:01:17.355Z,57.41
2019-06-10T03:06:30.343Z,58.04
2019-06-10T03:11:32.412Z,56.86
2019-06-10T03:16:33.602Z,56.64
2019-06-10T03:21:37.830Z,55.82
2019-06-10T03:26:42.898Z,56.95
2019-06-10T03:31:48.551Z,66.54
2019-06-10T03:36:53.511Z,67.26
2019-06-10T03:41:57.901Z,74.03
2019-06-10T03:47:02.811Z,81.21
2019-06-10T03:52:07.787Z,80.49
2019-06-10T03:57:12.126Z,84.31
2019-06-10T04:02:17.291Z,80.14
2019-06-10T04:07:26.481Z,78.90
2019-06-10T04:12:29.023Z,80.00
2019-06-10T04:17:33.423Z,86.75
2019-06-10T04:22:37.602Z,86.26
2019-06-10T04:27:42.509Z,86.00
2019-06-10T04:32:46.640Z,87.30
2019-06-10T04:37:52.056Z,88.47
2019-06-10T04:42:56.198Z,87.73
2019-06-10T04:48:02.900Z,89.11
2019-06-10T04:53:06.473Z,87.08
2019-06-10T04:58:12.986Z,87.34
2019-06-10T05:03:16.726Z,88.05
2019-06-10T05:08:21.563Z,87.48
2019-06-10T05:13:27.078Z,88.60
2019-06-10T05:18:33.227Z,89.69
2019-06-10T05:23:38.110Z,87.57
2019-06-10T05:28:43.208Z,86.90
2019-06-10T05:33:47.582Z,89.02
2019-06-10T05:38:52.565Z,90.48
2019-06-10T05:43:56.898Z,90.86
2019-06-10T05:49:03.091Z,91.85
2019-06-10T05:54:07.131Z,90.70
2019-06-10T05:59:12.179Z,88.22
2019-06-10T06:04:16.218Z,85.78
2019-06-10T06:09:22.116Z,86.36
2019-06-10T06:14:27.520Z,88.86
2019-06-10T06:19:33.718Z,85.59
2019-06-10T06:24:38.065Z,78.11
2019-06-10T06:29:43.202Z,76.38
2019-06-10T06:34:47.455Z,76.24
2019-06-10T06:39:52.342Z,78.46
2019-06-10T06:44:57.097Z,81.75
2019-06-10T06:50:02.756Z,78.35
2019-06-10T06:55:07.383Z,76.67
2019-06-10T07:00:37.322Z,70.63
2019-06-10T07:05:18.772Z,60.61
2019-06-10T07:10:23.083Z,56.50
2019-06-10T07:15:41.096Z,58.46
2019-06-10T07:20:45.778Z,59.77
2019-06-10T07:25:50.114Z,60.28
2019-06-10T07:30:55.392Z,59.26
2019-06-10T07:35:59.623Z,62.55
2019-06-10T07:41:03.843Z,63.97
2019-06-10T07:46:08.113Z,65.88
2019-06-10T07:51:13.208Z,64.81
2019-06-10T07:56:18.083Z,64.82
2019-06-10T08:01:23.140Z,66.00
2019-06-10T08:06:27.389Z,62.29
2019-06-10T08:11:35.437Z,62.23
2019-06-10T08:16:39.902Z,59.93
2019-06-10T08:21:47.368Z,56.14
2019-06-10T08:26:50.156Z,59.05
2019-06-10T08:31:54.415Z,58.89
2019-06-10T08:36:58.803Z,57.45
2019-06-10T08:42:03.341Z,52.55
2019-06-10T08:47:07.973Z,51.91
2019-06-10T08:52:12.902Z,49.09
2019-06-10T08:57:17.072Z,49.68
2019-06-10T09:02:23.335Z,50.96
2019-06-10T09:07:32.175Z,50.62
2019-06-10T09:12:36.889Z,49.16
2019-06-10T09:17:44.723Z,50.39
2019-06-10T09:23:11.198Z,49.91
2019-06-10T09:28:02.366Z,48.81
2019-06-10T09:33:06.891Z,46.34
2019-06-10T09:38:10.999Z,44.36
2019-06-10T09:43:15.758Z,39.28
2019-06-10T09:48:22.920Z,35.88
2019-06-10T09:53:38.960Z,34.37
2019-06-10T09:58:33.292Z,37.54
2019-06-10T10:03:37.271Z,36.54
2019-06-10T10:08:45.989Z,33.18
2019-06-10T10:13:49.543Z,32.83
2019-06-10T10:19:00.212Z,33.70
2019-06-10T10:24:07.980Z,34.23
2019-06-10T10:29:07.096Z,34.20
2019-06-10T10:34:13.446Z,36.56
2019-06-10T10:39:16.943Z,36.03
2019-06-10T10:44:21.625Z,37.09
2019-06-10T10:49:25.709Z,39.72
2019-06-10T10:54:36.021Z,41.49
2019-06-10T10:59:36.023Z,41.86
2019-06-10T11:04:44.743Z,40.95
2019-06-10T11:09:50.316Z,42.26
2019-06-10T11:15:00.458Z,40.13
2019-06-10T11:20:03.829Z,43.00
2019-06-10T11:25:08.220Z,41.07
2019-06-10T11:30:12.590Z,41.62
2019-06-10T11:35:17.041Z,39.64
2019-06-10T11:40:22.739Z,38.64
2019-06-10T11:45:26.890Z,39.44
2019-06-10T11:50:33.267Z,39.86
2019-06-10T11:55:44.298Z,36.98
2019-06-10T12:00:50.325Z,35.80
2019-06-10T12:05:58.993Z,35.88
2019-06-10T12:11:02.353Z,37.37
2019-06-10T12:16:58.350Z,35.37
2019-06-10T12:21:18.607Z,35.91
2019-06-10T12:26:23.621Z,36.58
2019-06-10T12:31:27.735Z,36.11
2019-06-10T12:36:32.976Z,35.69
2019-06-10T12:41:37.037Z,38.40
2019-06-10T12:46:43.097Z,38.13
2019-06-10T12:51:46.975Z,36.22
2019-06-10T12:56:52.739Z,35.01
2019-06-10T13:01:58.070Z,33.90
2019-06-10T13:07:05.746Z,35.80
2019-06-10T13:12:12.951Z,35.38
2019-06-10T13:17:17.375Z,36.35
2019-06-10T13:22:23.079Z,34.01
2019-06-10T13:27:27.167Z,32.97
2019-06-10T13:32:32.492Z,31.52
2019-06-10T13:37:38.976Z,31.60
2019-06-10T13:42:43.051Z,32.09
2019-06-10T13:47:47.233Z,32.67
2019-06-10T13:52:52.136Z,32.12
2019-06-10T13:57:56.389Z,33.66
2019-06-10T14:03:05.122Z,34.67
2019-06-10T14:08:09.358Z,33.39
2019-06-10T14:13:15.427Z,33.25
2019-06-10T14:18:18.473Z,36.71
2019-06-10T14:23:42.351Z,37.49
2019-06-10T14:29:06.226Z,37.05
2019-06-10T14:34:16.744Z,35.99
2019-06-10T14:39:37.614Z,37.04
2019-06-10T14:44:52.673Z,35.75
2019-06-10T14:49:57.606Z,35.79
2019-06-10T14:55:03.226Z,36.50
2019-06-10T15:00:09.781Z,39.05
2019-06-10T15:05:17.362Z,37.46
2019-06-10T15:10:23.120Z,37.74
2019-06-10T15:15:26.672Z,40.83
2019-06-10T15:20:32.924Z,42.12
2019-06-10T15:25:49.149Z,43.09
2019-06-10T15:30:43.537Z,44.52
2019-06-10T15:35:47.986Z,45.41
2019-06-10T15:40:53.263Z,45.24
2019-06-10T15:45:57.589Z,45.69
2019-06-10T15:51:03.073Z,46.40
2019-06-10T15:56:22.596Z,46.97
2019-06-10T16:01:16.675Z,45.27
2019-06-10T16:06:20.245Z,44.02
2019-06-10T16:11:27.168Z,41.86
2019-06-10T16:16:32.507Z,40.57
2019-06-10T16:21:37.081Z,40.97
2019-06-10T16:26:41.159Z,41.17
2019-06-10T16:31:45.875Z,41.53
2019-06-10T16:36:49.983Z,42.75
2019-06-10T16:42:12.427Z,42.31
2019-06-10T16:47:16.960Z,41.91
2019-06-10T16:52:24.036Z,45.13
2019-06-10T16:57:58.579Z,43.67
2019-06-10T17:02:52.966Z,44.38
2019-06-10T17:08:14.664Z,44.07
2019-06-10T17:13:18.967Z,44.55
2019-06-10T17:18:24.910Z,45.48
2019-06-10T17:23:35.312Z,47.33
2019-06-10T17:28:36.905Z,48.13
2019-06-10T17:33:42.755Z,50.10
2019-06-10T17:38:46.446Z,50.03
2019-06-10T17:43:52.116Z,50.79
2019-06-10T17:48:56.371Z,51.09
2019-06-10T17:54:18.708Z,50.79
2019-06-10T17:59:24.067Z,50.89
2019-06-10T18:04:29.715Z,51.54
2019-06-10T18:09:36.920Z,52.16
2019-06-10T18:14:39.881Z,53.21
2019-06-10T18:19:44.216Z,54.06
2019-06-10T18:24:52.332Z,54.79
2019-06-10T18:29:56.622Z,55.37
2019-06-10T18:35:02.933Z,55.45
2019-06-10T18:40:07.751Z,55.95
2019-06-10T18:45:13.430Z,57.12
2019-06-10T18:50:17.886Z,58.72
2019-06-10T18:55:22.665Z,60.01
2019-06-10T19:00:44.978Z,62.13
2019-06-10T19:05:36.298Z,62.90
2019-06-10T19:10:43.177Z,63.73
2019-06-10T19:15:52.965Z,64.79
2019-06-10T19:21:04.166Z,65.45
2019-06-10T19:26:09.093Z,65.59
2019-06-10T19:31:16.280Z,66.03
2019-06-10T19:36:23.651Z,67.34
2019-06-10T19:41:33.311Z,67.99
2019-06-10T19:46:42.802Z,68.93
2019-06-10T19:51:47.142Z,69.69
2019-06-10T19:56:52.460Z,70.28
2019-06-10T20:01:58.409Z,71.25
2019-06-10T20:07:03.649Z,71.03
2019-06-10T20:12:08.343Z,72.12
2019-06-10T20:17:13.785Z,72.40
2019-06-10T20:22:22.679Z,73.65
2019-06-10T20:27:26.108Z,74.83
2019-06-10T20:32:30.283Z,73.99
2019-06-10T20:37:35.098Z,75.02
2019-06-10T20:42:48.739Z,75.08
2019-06-10T20:47:54.336Z,75.81
2019-06-10T20:53:13.811Z,75.79
2019-06-10T20:58:07.445Z,77.41
2019-06-10T21:03:11.577Z,79.58
2019-06-10T21:08:17.226Z,81.95
2019-06-10T21:13:22.654Z,85.49
2019-06-10T21:18:27.060Z,89.50
2019-06-10T21:23:31.415Z,91.37
2019-06-10T21:28:35.505Z,94.92
2019-06-10T21:33:43.793Z,96.05
2019-06-10T21:38:49.354Z,96.80
2019-06-10T21:43:59.250Z,95.83
2019-06-10T21:49:00.194Z,97.03
2019-06-10T21:54:05.145Z,98.05
2019-06-10T21:59:10.014Z,100.00
2019-06-10T22:04:15.466Z,100.00
2019-06-10T22:09:19.896Z,100.00
2019-06-10T22:14:24.373Z,100.00
2019-06-10T22:19:28.498Z,100.00
2019-06-10T22:24:33.704Z,100.00
2019-06-10T22:29:37.748Z,100.00
2019-06-10T22:34:42.194Z,100.00
2019-06-10T22:39:47.699Z,100.00
2019-06-10T22:44:54.490Z,100.00
2019-06-10T22:49:59.990Z,100.00
2019-06-10T22:55:04.121Z,100.00
2019-06-10T23:00:08.913Z,100.00
2019-06-10T23:05:17.180Z,100.00
2019-06-10T23:10:22.691Z,100.00
2019-06-10T23:15:26.354Z,100.00
2019-06-10T23:20:30.354Z,100.00
2019-06-10T23:25:34.561Z,100.00
2019-06-10T23:30:39.004Z,100.00
2019-06-10T23:35:43.247Z,100.00
2019-06-10T23:40:47.331Z,100.00
2019-06-10T23:45:51.646Z,100.00
2019-06-10T23:50:57.753Z,100.00
2019-06-10T23:56:04.678Z,100.00
